Time;durP1;ratioP1;P1;durP2;ratioP2;P2;SDS_P1;SDS_P2;PMS_P1;PMS_P2;Temp;Humidity;BMP_temperature;BMP_pressure;BME280_temperature;BME280_humidity;BME280_pressure;Samples;Min_cycle;Max_cycle;Signal;HPM_P1;HPM_P2
2022/01/27 00:00:36;;;;;;;18.40;7.65;;;;;;;;;;5026047;28;20057;-51
2022/01/27 00:07:37;;;;;;;17.45;7.68;;;;;;;;;;5018375;28;20046;-50
2022/01/27 00:12:31;;;;;;;12.60;6.78;;;;;;;;;;5007868;28;20061;-53
2022/01/27 00:15:09;;;;;;;15.75;7.95;;;;;;;;;;5013682;28;20041;-48
2022/01/27 00:17:40;;;;;;;10.80;6.13;;;;;;;;;;5009795;28;20080;-52
2022/01/27 00:20:07;;;;;;;19.13;7.95;;;;;;;;;;5000422;28;20081;-51
2022/01/27 00:22:33;;;;;;;15.40;7.80;;;;;;;;;;5005405;28;20049;-50
2022/01/27 00:25:02;;;;;;;19.52;8.55;;;;;;;;;;5004740;28;20492;-49
2022/01/27 00:27:29;;;;;;;21.58;9.57;;;;;;;;;;5007921;28;20052;-49
2022/01/27 00:29:56;;;;;;;21.90;9.93;;;;;;;;;;5010364;28;20046;-52
2022/01/27 00:32:22;;;;;;;16.05;9.13;;;;;;;;;;5006235;28;20054;-51
2022/01/27 00:34:48;;;;;;;13.18;7.75;;;;;;;;;;5004325;28;20045;-51
2022/01/27 00:37:15;;;;;;;25.35;11.07;;;;;;;;;;5013491;28;20070;-52
2022/01/27 00:39:41;;;;;;;19.73;9.98;;;;;;;;;;5023104;28;20103;-49
2022/01/27 00:42:07;;;;;;;17.40;8.32;;;;;;;;;;5007710;28;20076;-50
2022/01/27 00:44:34;;;;;;;16.65;10.30;;;;;;;;;;5001936;28;20724;-50
2022/01/27 00:47:00;;;;;;;17.35;8.43;;;;;;;;;;5016662;28;20136;-51
2022/01/27 00:49:27;;;;;;;20.92;10.75;;;;;;;;;;5020464;28;20129;-49
2022/01/27 00:51:54;;;;;;;17.65;9.55;;;;;;;;;;5008129;28;20479;-53
2022/01/27 00:54:24;;;;;;;17.42;10.90;;;;;;;;;;5005432;28;20069;-51
2022/01/27 00:57:06;;;;;;;24.88;10.73;;;;;;;;;;5024391;28;20059;-50
2022/01/27 01:02:52;;;;;;;14.38;9.15;;;;;;;;;;5004434;28;20099;-52
2022/01/27 01:05:11;;;;;;;19.80;9.73;;;;;;;;;;4997455;28;20049;-49
2022/01/27 01:07:41;;;;;;;15.15;7.65;;;;;;;;;;5005476;28;20042;-50
2022/01/27 01:15:38;;;;;;;19.70;8.43;;;;;;;;;;5001624;28;20152;-51
2022/01/27 01:31:44;;;;;;;25.63;11.40;;;;;;;;;;5007535;28;20866;-50
2022/01/27 01:34:16;;;;;;;25.02;11.18;;;;;;;;;;5003189;28;20046;-52
2022/01/27 01:37:07;;;;;;;25.83;11.38;;;;;;;;;;4996407;28;20141;-47
2022/01/27 01:39:33;;;;;;;23.08;10.52;;;;;;;;;;5003165;28;20164;-48
2022/01/27 01:42:00;;;;;;;26.38;12.60;;;;;;;;;;4997077;28;20073;-48
2022/01/27 01:44:27;;;;;;;28.77;12.65;;;;;;;;;;5005864;28;20137;-50
2022/01/27 01:46:54;;;;;;;26.45;13.25;;;;;;;;;;5005442;28;20056;-54
2022/01/27 01:49:23;;;;;;;15.10;7.00;;;;;;;;;;5006965;28;20100;-54
2022/01/27 01:51:49;;;;;;;24.00;12.20;;;;;;;;;;5007708;28;20087;-52
2022/01/27 01:54:16;;;;;;;25.65;12.10;;;;;;;;;;5004320;28;20073;-51
2022/01/27 01:56:43;;;;;;;25.13;10.40;;;;;;;;;;5004390;28;20042;-52
2022/01/27 01:59:09;;;;;;;28.42;12.75;;;;;;;;;;5002021;28;20101;-48
2022/01/27 02:01:37;;;;;;;22.73;11.18;;;;;;;;;;5008914;28;20483;-52
2022/01/27 02:04:07;;;;;;;22.85;11.32;;;;;;;;;;5008359;28;20145;-52
2022/01/27 02:06:39;;;;;;;20.77;11.50;;;;;;;;;;5024571;28;20643;-52
2022/01/27 02:20:03;;;;;;;19.35;10.00;;;;;;;;;;5027510;28;20839;-54
2022/01/27 02:22:30;;;;;;;21.08;10.70;;;;;;;;;;5023424;28;20059;-51
2022/01/27 02:24:56;;;;;;;17.13;8.35;;;;;;;;;;5022851;28;21576;-50
2022/01/27 02:27:22;;;;;;;17.35;9.90;;;;;;;;;;5024129;28;20049;-51
2022/01/27 02:29:49;;;;;;;21.08;9.25;;;;;;;;;;5023892;28;20547;-52
2022/01/27 02:32:16;;;;;;;20.52;9.00;;;;;;;;;;5023820;28;20129;-52
2022/01/27 02:34:43;;;;;;;20.08;8.60;;;;;;;;;;5016121;28;20582;-53
2022/01/27 02:37:10;;;;;;;18.17;8.02;;;;;;;;;;5023229;28;20705;-52
2022/01/27 02:39:36;;;;;;;17.60;7.45;;;;;;;;;;5020606;28;20045;-51
2022/01/27 02:42:10;;;;;;;20.17;8.60;;;;;;;;;;5022704;28;20083;-52
2022/01/27 02:44:51;;;;;;;20.67;8.23;;;;;;;;;;5022884;28;20056;-50
2022/01/27 02:47:18;;;;;;;17.45;7.13;;;;;;;;;;5021258;28;20045;-52
2022/01/27 02:49:44;;;;;;;17.65;8.43;;;;;;;;;;5021598;28;20136;-52
2022/01/27 02:52:11;;;;;;;15.63;7.45;;;;;;;;;;5025861;28;20135;-51
2022/01/27 02:54:37;;;;;;;13.35;7.05;;;;;;;;;;5021816;28;20053;-52
2022/01/27 02:57:20;;;;;;;20.45;8.32;;;;;;;;;;5019309;28;20504;-49
2022/01/27 02:59:47;;;;;;;18.35;7.25;;;;;;;;;;5023791;28;20699;-50
2022/01/27 03:02:14;;;;;;;22.98;8.10;;;;;;;;;;5025251;28;20128;-51
2022/01/27 03:04:40;;;;;;;17.55;7.32;;;;;;;;;;5016678;28;20080;-52
2022/01/27 03:07:07;;;;;;;19.17;7.05;;;;;;;;;;5022997;28;20049;-51
2022/01/27 03:09:34;;;;;;;21.98;7.35;;;;;;;;;;5024072;28;20134;-50
2022/01/27 03:12:02;;;;;;;21.13;7.53;;;;;;;;;;5025122;28;20053;-53
2022/01/27 03:14:30;;;;;;;16.42;6.28;;;;;;;;;;5018760;28;20053;-53
2022/01/27 03:16:58;;;;;;;18.27;7.28;;;;;;;;;;5020771;28;20073;-52
2022/01/27 03:19:25;;;;;;;21.35;6.85;;;;;;;;;;5022840;28;20137;-50
2022/01/27 03:21:53;;;;;;;19.33;5.97;;;;;;;;;;5024581;28;20140;-50
2022/01/27 03:24:20;;;;;;;17.65;6.53;;;;;;;;;;5017854;28;21792;-53
2022/01/27 03:26:47;;;;;;;21.08;6.95;;;;;;;;;;5020358;28;20077;-49
2022/01/27 03:29:16;;;;;;;18.80;6.75;;;;;;;;;;5021902;28;20051;-52
2022/01/27 03:31:43;;;;;;;15.07;5.97;;;;;;;;;;5028422;28;20496;-50
2022/01/27 03:34:10;;;;;;;22.13;7.43;;;;;;;;;;5022031;28;20549;-53
2022/01/27 03:36:36;;;;;;;12.82;6.18;;;;;;;;;;5025579;28;20428;-53
2022/01/27 03:39:04;;;;;;;13.43;5.82;;;;;;;;;;5021856;28;20124;-52
2022/01/27 03:41:33;;;;;;;17.45;6.13;;;;;;;;;;5020198;28;20085;-52
2022/01/27 03:44:00;;;;;;;19.77;6.70;;;;;;;;;;5021091;28;20045;-52
2022/01/27 03:46:27;;;;;;;17.55;6.88;;;;;;;;;;5022265;28;20049;-51
2022/01/27 03:48:53;;;;;;;21.40;7.90;;;;;;;;;;5021052;28;20136;-53
2022/01/27 03:51:19;;;;;;;18.02;6.55;;;;;;;;;;5017024;28;20049;-51
2022/01/27 03:53:46;;;;;;;20.63;7.72;;;;;;;;;;5021973;28;20153;-51
2022/01/27 03:56:13;;;;;;;14.98;5.57;;;;;;;;;;5021907;28;20061;-51
2022/01/27 03:58:39;;;;;;;18.60;6.78;;;;;;;;;;5022119;28;20041;-48
2022/01/27 04:01:06;;;;;;;16.80;6.30;;;;;;;;;;5029127;28;20426;-51
2022/01/27 04:03:35;;;;;;;20.33;7.50;;;;;;;;;;5022548;28;20049;-53
2022/01/27 04:06:09;;;;;;;20.92;6.25;;;;;;;;;;5024386;28;20119;-53
2022/01/27 04:08:37;;;;;;;18.92;6.43;;;;;;;;;;5022417;28;20076;-53
2022/01/27 04:11:07;;;;;;;18.17;6.50;;;;;;;;;;5019245;28;20136;-50
2022/01/27 04:13:35;;;;;;;16.58;6.60;;;;;;;;;;5022785;28;20153;-53
2022/01/27 04:16:02;;;;;;;19.67;6.60;;;;;;;;;;5017035;28;20057;-53
2022/01/27 04:18:28;;;;;;;14.30;5.85;;;;;;;;;;5021500;28;20073;-54
2022/01/27 04:20:55;;;;;;;17.48;6.80;;;;;;;;;;5030319;28;20128;-53
2022/01/27 04:23:21;;;;;;;17.13;7.30;;;;;;;;;;5021310;28;20080;-52
2022/01/27 04:25:48;;;;;;;15.57;6.65;;;;;;;;;;5022597;28;20073;-51
2022/01/27 04:28:21;;;;;;;16.27;7.07;;;;;;;;;;5021948;28;20546;-53
2022/01/27 04:30:48;;;;;;;20.33;6.43;;;;;;;;;;5028990;28;20054;-53
2022/01/27 04:33:16;;;;;;;16.17;5.95;;;;;;;;;;5019470;28;20071;-52
2022/01/27 04:35:47;;;;;;;16.48;6.18;;;;;;;;;;5015757;28;20052;-53
2022/01/27 04:40:49;;;;;;;19.15;6.80;;;;;;;;;;5023124;28;20149;-53
2022/01/27 04:43:32;;;;;;;18.85;6.28;;;;;;;;;;5023131;28;20045;-53
2022/01/27 04:48:34;;;;;;;19.65;6.68;;;;;;;;;;5024887;28;20041;-54
2022/01/27 04:51:06;;;;;;;17.63;5.68;;;;;;;;;;5024558;28;20073;-51
2022/01/27 04:53:37;;;;;;;17.63;6.22;;;;;;;;;;5024707;28;20081;-54
2022/01/27 04:56:17;;;;;;;30.27;6.90;;;;;;;;;;5020946;28;20080;-48
2022/01/27 04:58:46;;;;;;;15.30;4.85;;;;;;;;;;5021851;28;20167;-49
2022/01/27 05:01:13;;;;;;;18.63;5.75;;;;;;;;;;5022970;28;20096;-53
2022/01/27 05:06:07;;;;;;;20.77;6.25;;;;;;;;;;5023516;28;20184;-53
2022/01/27 05:08:34;;;;;;;15.45;6.00;;;;;;;;;;5027114;28;20507;-50
2022/01/27 05:11:06;;;;;;;14.88;5.55;;;;;;;;;;5024304;28;20480;-51
2022/01/27 05:13:41;;;;;;;21.65;6.45;;;;;;;;;;5017255;28;20136;-53
2022/01/27 05:16:07;;;;;;;18.05;6.63;;;;;;;;;;5024318;28;20075;-50
2022/01/27 05:18:34;;;;;;;14.60;5.40;;;;;;;;;;5025442;28;20088;-53
2022/01/27 05:21:01;;;;;;;24.90;6.53;;;;;;;;;;5021556;28;20057;-54
2022/01/27 05:23:27;;;;;;;13.93;5.22;;;;;;;;;;5022453;28;20519;-50
2022/01/27 05:25:54;;;;;;;16.55;6.88;;;;;;;;;;5020981;28;20473;-49
2022/01/27 05:28:20;;;;;;;18.20;6.72;;;;;;;;;;5021566;28;20506;-48
2022/01/27 05:30:48;;;;;;;17.55;5.88;;;;;;;;;;5019938;28;20152;-48
2022/01/27 05:33:15;;;;;;;21.60;6.57;;;;;;;;;;5014671;28;20049;-50
2022/01/27 05:35:45;;;;;;;15.35;4.75;;;;;;;;;;5014732;28;20053;-51
2022/01/27 05:38:13;;;;;;;15.35;5.03;;;;;;;;;;5024648;28;20049;-51
2022/01/27 05:40:40;;;;;;;21.77;7.07;;;;;;;;;;5024648;28;20607;-51
2022/01/27 05:43:06;;;;;;;14.73;4.90;;;;;;;;;;5020634;28;20108;-51
2022/01/27 05:45:32;;;;;;;18.13;5.78;;;;;;;;;;5020210;28;20535;-50
2022/01/27 05:47:59;;;;;;;16.63;4.88;;;;;;;;;;5023499;28;20053;-52
2022/01/27 05:50:25;;;;;;;21.80;7.05;;;;;;;;;;5022188;28;20058;-49
2022/01/27 05:52:52;;;;;;;17.08;4.68;;;;;;;;;;5020695;28;20176;-51
2022/01/27 05:55:18;;;;;;;19.58;5.50;;;;;;;;;;5024927;28;20042;-51
2022/01/27 05:57:45;;;;;;;13.65;4.53;;;;;;;;;;5028114;28;20042;-49
2022/01/27 06:00:11;;;;;;;20.63;5.70;;;;;;;;;;5023510;28;20170;-51
2022/01/27 06:02:38;;;;;;;18.60;6.07;;;;;;;;;;5027707;28;20540;-50
2022/01/27 06:05:05;;;;;;;19.65;5.38;;;;;;;;;;5022562;28;20072;-50
2022/01/27 06:07:31;;;;;;;15.15;5.45;;;;;;;;;;5025136;28;20061;-52
2022/01/27 06:09:58;;;;;;;14.23;5.65;;;;;;;;;;5024885;28;20136;-51
2022/01/27 06:12:24;;;;;;;15.38;6.07;;;;;;;;;;5021647;28;20140;-52
2022/01/27 06:14:50;;;;;;;18.23;6.45;;;;;;;;;;5022368;28;20041;-51
2022/01/27 06:17:17;;;;;;;14.82;5.88;;;;;;;;;;5016314;28;20072;-50
2022/01/27 06:19:45;;;;;;;17.60;5.10;;;;;;;;;;5022056;28;20045;-49
2022/01/27 06:22:12;;;;;;;23.17;6.20;;;;;;;;;;5019922;28;20049;-50
2022/01/27 06:24:42;;;;;;;20.08;5.78;;;;;;;;;;5017295;28;20048;-51
2022/01/27 06:27:10;;;;;;;17.05;5.97;;;;;;;;;;5016985;28;20042;-52
2022/01/27 06:29:36;;;;;;;24.05;6.32;;;;;;;;;;5021958;28;20055;-50
2022/01/27 06:32:03;;;;;;;13.75;5.20;;;;;;;;;;5021312;28;20534;-50
2022/01/27 06:34:30;;;;;;;20.65;5.18;;;;;;;;;;5017248;28;20761;-51
2022/01/27 06:36:57;;;;;;;15.60;4.97;;;;;;;;;;5022375;28;20146;-51
2022/01/27 06:39:23;;;;;;;20.83;5.75;;;;;;;;;;5020149;28;20042;-49
2022/01/27 06:41:50;;;;;;;19.58;5.25;;;;;;;;;;5021134;28;20034;-50
2022/01/27 06:44:18;;;;;;;14.35;4.20;;;;;;;;;;5020772;28;20164;-51
2022/01/27 06:46:44;;;;;;;17.33;5.15;;;;;;;;;;5021172;28;20511;-51
2022/01/27 06:49:16;;;;;;;16.95;5.50;;;;;;;;;;5020273;28;20085;-51
2022/01/27 06:51:43;;;;;;;17.85;4.68;;;;;;;;;;5024856;28;20113;-49
2022/01/27 06:54:10;;;;;;;15.60;4.22;;;;;;;;;;5026558;28;20044;-49
2022/01/27 06:56:36;;;;;;;20.85;6.70;;;;;;;;;;5020961;28;20526;-52
2022/01/27 06:59:04;;;;;;;14.07;4.47;;;;;;;;;;5021185;28;20530;-50
2022/01/27 07:01:30;;;;;;;13.05;4.57;;;;;;;;;;5019307;28;20092;-48
2022/01/27 07:03:57;;;;;;;15.82;4.20;;;;;;;;;;5019706;28;20632;-52
2022/01/27 07:06:23;;;;;;;18.83;5.57;;;;;;;;;;5022445;28;20132;-51
2022/01/27 07:08:50;;;;;;;19.27;6.57;;;;;;;;;;5031904;28;20083;-51
2022/01/27 07:11:16;;;;;;;21.52;6.25;;;;;;;;;;5022566;28;20045;-50
2022/01/27 07:13:44;;;;;;;18.23;5.30;;;;;;;;;;5025886;28;20228;-50
2022/01/27 07:16:11;;;;;;;15.07;4.97;;;;;;;;;;5026536;28;20132;-51
2022/01/27 07:18:38;;;;;;;13.07;4.60;;;;;;;;;;5021104;28;20128;-51
2022/01/27 07:21:04;;;;;;;16.65;5.22;;;;;;;;;;5023898;28;20484;-51
2022/01/27 07:23:31;;;;;;;14.68;5.07;;;;;;;;;;5017943;28;20101;-52
2022/01/27 07:25:57;;;;;;;17.00;5.80;;;;;;;;;;5023501;28;20710;-50
2022/01/27 07:28:24;;;;;;;15.45;4.30;;;;;;;;;;5018651;28;20501;-51
2022/01/27 07:30:50;;;;;;;11.85;4.32;;;;;;;;;;5019872;28;20072;-50
2022/01/27 07:33:17;;;;;;;8.00;3.47;;;;;;;;;;5020499;28;20045;-52
2022/01/27 07:35:43;;;;;;;14.65;3.58;;;;;;;;;;5017300;28;20068;-52
2022/01/27 07:38:10;;;;;;;18.52;4.97;;;;;;;;;;5023585;28;20046;-50
2022/01/27 07:40:36;;;;;;;18.05;4.22;;;;;;;;;;5021154;28;20056;-50
2022/01/27 07:43:18;;;;;;;14.77;5.15;;;;;;;;;;5012820;28;20118;-50
2022/01/27 07:45:45;;;;;;;19.08;4.90;;;;;;;;;;5023053;28;20041;-50
2022/01/27 07:48:11;;;;;;;14.77;4.10;;;;;;;;;;5018823;28;20053;-52
2022/01/27 07:50:37;;;;;;;12.35;3.47;;;;;;;;;;5024279;28;20052;-51
2022/01/27 07:53:04;;;;;;;17.42;4.43;;;;;;;;;;5022449;28;20045;-52
2022/01/27 07:55:30;;;;;;;19.17;5.30;;;;;;;;;;5021129;28;20153;-51
2022/01/27 07:57:57;;;;;;;11.43;3.30;;;;;;;;;;5026029;28;20119;-52
2022/01/27 08:00:23;;;;;;;19.75;4.97;;;;;;;;;;5021801;28;20427;-51
2022/01/27 08:02:49;;;;;;;19.73;4.97;;;;;;;;;;5022688;28;20132;-52
2022/01/27 08:05:16;;;;;;;13.27;3.55;;;;;;;;;;5023823;28;20128;-52
2022/01/27 08:07:43;;;;;;;13.10;3.53;;;;;;;;;;5018926;28;20045;-51
2022/01/27 08:10:09;;;;;;;20.63;4.35;;;;;;;;;;5021510;28;20117;-52
2022/01/27 08:12:39;;;;;;;16.17;4.20;;;;;;;;;;5025875;28;20144;-51
2022/01/27 08:15:06;;;;;;;12.40;3.78;;;;;;;;;;5024113;28;20104;-51
2022/01/27 08:17:32;;;;;;;15.20;4.10;;;;;;;;;;5025691;28;20567;-51
2022/01/27 08:19:59;;;;;;;14.95;3.67;;;;;;;;;;5026635;28;20044;-52
2022/01/27 08:22:25;;;;;;;14.68;4.15;;;;;;;;;;5018732;28;20124;-51
2022/01/27 08:24:52;;;;;;;12.60;4.15;;;;;;;;;;5028061;28;20112;-50
2022/01/27 08:27:19;;;;;;;15.05;4.60;;;;;;;;;;5023030;28;20144;-51
2022/01/27 08:30:04;;;;;;;9.75;3.72;;;;;;;;;;5025397;28;20768;-51
2022/01/27 08:35:14;;;;;;;11.50;4.22;;;;;;;;;;5027118;28;20060;-51
2022/01/27 08:37:40;;;;;;;13.45;4.15;;;;;;;;;;5023434;28;20467;-48
2022/01/27 08:40:08;;;;;;;11.00;4.20;;;;;;;;;;5026574;28;20102;-52
2022/01/27 08:42:55;;;;;;;14.50;4.13;;;;;;;;;;5023180;28;20049;-49
2022/01/27 08:45:24;;;;;;;14.63;3.50;;;;;;;;;;5030988;28;20049;-51
2022/01/27 08:47:51;;;;;;;13.32;3.50;;;;;;;;;;5026882;28;20121;-51
2022/01/27 08:50:20;;;;;;;12.43;3.17;;;;;;;;;;5031267;28;20124;-50
2022/01/27 08:52:47;;;;;;;12.10;3.58;;;;;;;;;;5025006;28;20487;-52
2022/01/27 08:55:13;;;;;;;12.98;3.92;;;;;;;;;;5027615;28;20053;-50
2022/01/27 08:57:40;;;;;;;15.82;4.18;;;;;;;;;;5024052;28;20058;-50
2022/01/27 09:00:07;;;;;;;14.57;3.72;;;;;;;;;;5026050;28;20057;-49
2022/01/27 09:02:34;;;;;;;16.65;5.05;;;;;;;;;;5017372;28;20136;-51
2022/01/27 09:05:00;;;;;;;17.45;4.18;;;;;;;;;;5024579;28;20133;-50
2022/01/27 09:07:27;;;;;;;10.23;3.50;;;;;;;;;;5025320;28;20132;-51
2022/01/27 09:09:53;;;;;;;18.77;4.45;;;;;;;;;;5022372;28;20147;-48
2022/01/27 09:12:20;;;;;;;16.10;3.67;;;;;;;;;;5021115;28;20061;-50
2022/01/27 09:14:46;;;;;;;17.00;4.05;;;;;;;;;;5024217;28;21036;-52
2022/01/27 09:17:13;;;;;;;11.60;3.72;;;;;;;;;;5020247;28;20503;-49
2022/01/27 09:19:46;;;;;;;21.15;4.88;;;;;;;;;;5022781;28;20058;-51
2022/01/27 09:22:15;;;;;;;18.10;5.25;;;;;;;;;;5016805;28;20661;-49
2022/01/27 09:24:54;;;;;;;16.77;3.85;;;;;;;;;;5023930;28;20483;-50
2022/01/27 09:27:21;;;;;;;22.20;5.07;;;;;;;;;;5023328;28;20041;-48
2022/01/27 09:30:08;;;;;;;17.85;3.47;;;;;;;;;;5019223;28;20492;-50
2022/01/27 09:32:34;;;;;;;11.52;4.03;;;;;;;;;;5018338;28;20059;-50
2022/01/27 09:35:03;;;;;;;17.90;3.85;;;;;;;;;;5020267;28;20045;-50
2022/01/27 09:37:29;;;;;;;15.55;3.45;;;;;;;;;;5023762;28;20081;-51
2022/01/27 09:39:56;;;;;;;13.60;3.28;;;;;;;;;;5024540;28;20073;-51
2022/01/27 09:42:25;;;;;;;13.80;3.22;;;;;;;;;;5020725;28;20585;-53
2022/01/27 09:44:53;;;;;;;12.93;3.13;;;;;;;;;;5021110;28;20141;-52
2022/01/27 09:47:20;;;;;;;18.42;4.28;;;;;;;;;;5017481;28;20055;-52
2022/01/27 09:49:53;;;;;;;11.55;3.17;;;;;;;;;;5021016;28;20144;-51
2022/01/27 09:52:19;;;;;;;24.00;3.85;;;;;;;;;;5020736;28;20057;-51
2022/01/27 09:54:46;;;;;;;11.63;3.78;;;;;;;;;;5021351;28;20570;-51
2022/01/27 09:57:18;;;;;;;9.80;2.45;;;;;;;;;;5027034;28;20056;-51
2022/01/27 09:59:45;;;;;;;11.98;3.25;;;;;;;;;;5023104;28;20452;-48
2022/01/27 10:02:17;;;;;;;10.50;2.90;;;;;;;;;;5021109;28;20052;-51
2022/01/27 10:04:48;;;;;;;18.13;3.58;;;;;;;;;;5023919;28;20049;-51
2022/01/27 10:07:15;;;;;;;12.27;3.70;;;;;;;;;;5022463;28;20050;-49
2022/01/27 10:10:01;;;;;;;12.20;3.05;;;;;;;;;;5022437;28;20049;-49
2022/01/27 10:12:32;;;;;;;13.83;2.80;;;;;;;;;;5027646;28;20622;-50
2022/01/27 10:15:00;;;;;;;15.52;4.20;;;;;;;;;;5017737;28;20516;-51
2022/01/27 10:17:30;;;;;;;15.65;3.15;;;;;;;;;;5020117;28;20053;-49
2022/01/27 10:19:57;;;;;;;15.13;4.03;;;;;;;;;;5021725;28;20045;-50
2022/01/27 10:22:24;;;;;;;12.82;2.95;;;;;;;;;;5023760;28;20053;-51
2022/01/27 10:25:01;;;;;;;10.77;3.15;;;;;;;;;;5024691;28;20424;-52
2022/01/27 10:27:33;;;;;;;22.02;4.40;;;;;;;;;;5021541;28;20068;-51
2022/01/27 10:30:35;;;;;;;13.75;2.90;;;;;;;;;;5015580;28;20685;-50
2022/01/27 10:32:49;;;;;;;20.33;3.35;;;;;;;;;;5017768;28;20079;-49
2022/01/27 10:35:16;;;;;;;13.10;3.05;;;;;;;;;;5018462;28;20037;-50
2022/01/27 10:37:59;;;;;;;15.88;3.35;;;;;;;;;;5022402;28;20148;-54
2022/01/27 10:40:32;;;;;;;10.40;2.67;;;;;;;;;;5021291;28;20127;-51
2022/01/27 10:43:01;;;;;;;9.93;2.55;;;;;;;;;;5015997;28;20140;-51
2022/01/27 10:45:27;;;;;;;12.50;2.63;;;;;;;;;;5024374;28;20045;-52
2022/01/27 10:48:32;;;;;;;11.27;2.70;;;;;;;;;;5020381;28;20053;-50
2022/01/27 10:53:51;;;;;;;11.30;2.65;;;;;;;;;;4996987;28;20274;-52
2022/01/27 10:56:19;;;;;;;16.40;2.85;;;;;;;;;;5000727;28;20106;-52
2022/01/27 10:58:46;;;;;;;11.60;2.70;;;;;;;;;;5001366;28;20180;-52
2022/01/27 11:01:20;;;;;;;8.07;2.33;;;;;;;;;;4999914;28;20037;-52
2022/01/27 11:03:51;;;;;;;10.05;3.00;;;;;;;;;;5001091;28;20084;-51
2022/01/27 11:06:18;;;;;;;14.55;3.22;;;;;;;;;;4998971;28;20084;-51
2022/01/27 11:08:44;;;;;;;10.75;2.78;;;;;;;;;;5002648;28;20133;-52
2022/01/27 11:11:11;;;;;;;10.25;2.75;;;;;;;;;;5003474;28;20178;-49
2022/01/27 11:13:38;;;;;;;10.80;1.98;;;;;;;;;;4996470;28;20174;-54
2022/01/27 11:16:05;;;;;;;10.85;2.47;;;;;;;;;;5002694;28;20961;-57
2022/01/27 11:18:32;;;;;;;14.68;2.50;;;;;;;;;;4999227;28;20461;-53
2022/01/27 11:21:09;;;;;;;7.38;1.98;;;;;;;;;;4994271;28;20077;-51
2022/01/27 11:26:12;;;;;;;10.68;2.83;;;;;;;;;;5017499;28;20104;-53
2022/01/27 11:28:42;;;;;;;14.18;2.88;;;;;;;;;;5019255;28;20077;-53
2022/01/27 11:31:27;;;;;;;7.63;1.90;;;;;;;;;;5022237;28;20083;-51
2022/01/27 11:34:01;;;;;;;11.27;2.50;;;;;;;;;;5018273;28;20108;-54
2022/01/27 11:36:29;;;;;;;14.25;2.97;;;;;;;;;;5019147;28;20489;-51
2022/01/27 11:38:56;;;;;;;8.00;2.33;;;;;;;;;;5013117;28;20064;-52
2022/01/27 11:41:43;;;;;;;8.38;2.75;;;;;;;;;;5019821;28;20124;-50
2022/01/27 11:44:19;;;;;;;7.47;2.10;;;;;;;;;;5016389;28;20053;-54
2022/01/27 11:47:05;;;;;;;10.57;2.03;;;;;;;;;;5019387;28;20147;-51
2022/01/27 11:50:03;;;;;;;6.00;1.73;;;;;;;;;;5027610;28;20499;-52
2022/01/27 11:52:31;;;;;;;11.13;2.75;;;;;;;;;;5022714;28;20104;-51
2022/01/27 11:55:20;;;;;;;10.55;2.60;;;;;;;;;;5024969;28;20574;-54
2022/01/27 11:57:48;;;;;;;11.52;2.22;;;;;;;;;;5025369;28;20524;-53
2022/01/27 12:00:16;;;;;;;14.65;2.83;;;;;;;;;;5026020;28;20060;-52
2022/01/27 12:03:01;;;;;;;13.05;2.90;;;;;;;;;;5028037;28;20057;-53
2022/01/27 12:05:29;;;;;;;11.55;2.50;;;;;;;;;;5019800;28;20535;-53
2022/01/27 12:08:19;;;;;;;15.40;2.28;;;;;;;;;;5023306;28;20049;-53
2022/01/27 12:11:09;;;;;;;11.50;3.03;;;;;;;;;;5024402;28;20041;-53
2022/01/27 12:13:40;;;;;;;9.88;2.00;;;;;;;;;;5025491;28;20057;-52
2022/01/27 12:16:24;;;;;;;10.55;2.47;;;;;;;;;;5027386;28;20077;-53
2022/01/27 12:19:17;;;;;;;4.68;1.65;;;;;;;;;;5023020;28;20133;-53
2022/01/27 12:21:54;;;;;;;9.85;2.22;;;;;;;;;;5030032;28;20689;-53
2022/01/27 12:24:24;;;;;;;13.48;2.30;;;;;;;;;;5004802;28;20038;-52
2022/01/27 12:26:53;;;;;;;7.28;1.90;;;;;;;;;;5014558;28;20104;-50
2022/01/27 12:29:24;;;;;;;14.50;3.13;;;;;;;;;;4999697;28;20132;-54
2022/01/27 12:31:51;;;;;;;12.30;2.65;;;;;;;;;;5001877;28;20500;-52
2022/01/27 12:34:18;;;;;;;13.70;2.42;;;;;;;;;;5006571;28;20049;-50
2022/01/27 12:36:58;;;;;;;7.93;2.10;;;;;;;;;;5020967;28;20081;-50
2022/01/27 12:39:27;;;;;;;5.15;1.58;;;;;;;;;;5003300;28;20937;-49
2022/01/27 12:41:54;;;;;;;8.45;2.08;;;;;;;;;;5022672;28;20444;-52
2022/01/27 12:44:22;;;;;;;8.45;2.53;;;;;;;;;;5025166;28;20128;-51
2022/01/27 12:47:12;;;;;;;10.80;2.53;;;;;;;;;;5022464;28;20203;-51
2022/01/27 12:49:43;;;;;;;7.50;2.05;;;;;;;;;;5018869;28;20415;-51
2022/01/27 12:52:12;;;;;;;9.70;2.63;;;;;;;;;;5020392;28;20073;-51
2022/01/27 12:54:39;;;;;;;6.47;2.17;;;;;;;;;;5023168;28;20050;-51
2022/01/27 12:57:06;;;;;;;7.10;1.80;;;;;;;;;;5025401;28;20511;-51
2022/01/27 12:59:37;;;;;;;7.60;2.47;;;;;;;;;;5021246;28;20047;-51
2022/01/27 13:02:05;;;;;;;9.27;2.15;;;;;;;;;;5024127;28;20046;-52
2022/01/27 13:04:32;;;;;;;9.98;2.20;;;;;;;;;;5026215;28;20222;-52
2022/01/27 13:06:59;;;;;;;10.35;1.90;;;;;;;;;;5023026;28;20136;-51
2022/01/27 13:09:27;;;;;;;11.48;2.95;;;;;;;;;;5024924;28;20049;-51
2022/01/27 13:11:55;;;;;;;10.88;2.63;;;;;;;;;;5022985;28;20140;-51
2022/01/27 13:14:22;;;;;;;9.80;2.00;;;;;;;;;;5019250;28;20057;-51
2022/01/27 13:17:05;;;;;;;7.88;1.98;;;;;;;;;;5024010;28;20045;-51
2022/01/27 13:19:37;;;;;;;9.30;2.53;;;;;;;;;;5024279;28;20045;-51
2022/01/27 13:22:07;;;;;;;9.80;1.77;;;;;;;;;;5023395;28;20092;-52
2022/01/27 13:24:48;;;;;;;9.68;2.20;;;;;;;;;;5025437;28;20158;-47
2022/01/27 13:27:15;;;;;;;6.10;1.90;;;;;;;;;;5023071;28;20084;-52
2022/01/27 13:29:45;;;;;;;7.07;1.70;;;;;;;;;;5020894;28;20746;-52
2022/01/27 13:32:11;;;;;;;6.93;1.40;;;;;;;;;;5021512;28;20045;-51
2022/01/27 13:34:56;;;;;;;6.10;1.95;;;;;;;;;;5022810;28;20486;-51
2022/01/27 13:37:29;;;;;;;8.00;2.65;;;;;;;;;;5020324;28;20049;-51
2022/01/27 13:42:23;;;;;;;9.90;2.10;;;;;;;;;;5025107;28;20760;-51
2022/01/27 13:44:53;;;;;;;9.27;2.50;;;;;;;;;;5020384;28;20060;-50
2022/01/27 13:47:25;;;;;;;6.32;1.85;;;;;;;;;;5023275;28;20048;-51
2022/01/27 13:49:52;;;;;;;13.75;2.50;;;;;;;;;;5020135;28;20049;-51
2022/01/27 13:52:19;;;;;;;9.82;1.63;;;;;;;;;;5024442;28;20050;-51
2022/01/27 13:54:49;;;;;;;13.63;2.58;;;;;;;;;;5021456;28;20123;-51
2022/01/27 13:57:32;;;;;;;13.82;2.35;;;;;;;;;;5021696;28;20056;-54
2022/01/27 14:00:01;;;;;;;8.93;1.75;;;;;;;;;;5020388;28;20069;-51
2022/01/27 14:02:55;;;;;;;5.57;1.92;;;;;;;;;;5023838;28;20048;-52
2022/01/27 14:05:22;;;;;;;7.25;1.25;;;;;;;;;;5018430;28;20076;-54
2022/01/27 14:07:52;;;;;;;7.15;1.88;;;;;;;;;;5022834;28;20063;-51
2022/01/27 14:10:25;;;;;;;15.73;3.08;;;;;;;;;;5020603;28;20053;-54
2022/01/27 14:13:02;;;;;;;10.65;2.00;;;;;;;;;;5022870;28;20136;-52
2022/01/27 14:15:33;;;;;;;9.25;2.20;;;;;;;;;;5024266;28;20156;-53
2022/01/27 14:18:02;;;;;;;8.93;2.03;;;;;;;;;;5021456;28;20520;-54
2022/01/27 14:20:29;;;;;;;8.85;2.00;;;;;;;;;;5021905;28;20045;-53
2022/01/27 14:23:23;;;;;;;9.65;1.77;;;;;;;;;;5023330;28;20183;-54
2022/01/27 14:25:54;;;;;;;11.77;2.58;;;;;;;;;;5010400;28;20037;-54
2022/01/27 14:28:21;;;;;;;7.30;1.65;;;;;;;;;;5020887;28;20141;-54
2022/01/27 14:30:47;;;;;;;10.35;1.98;;;;;;;;;;5025059;28;20037;-51
2022/01/27 14:33:14;;;;;;;5.07;1.48;;;;;;;;;;5025627;28;20057;-54
2022/01/27 14:35:44;;;;;;;13.95;2.97;;;;;;;;;;5021901;28;20077;-54
2022/01/27 14:38:10;;;;;;;10.70;2.15;;;;;;;;;;5021171;28;20049;-53
2022/01/27 14:40:39;;;;;;;9.10;2.15;;;;;;;;;;5021611;28;20045;-54
2022/01/27 14:43:06;;;;;;;7.47;2.30;;;;;;;;;;5023205;28;20080;-53
2022/01/27 14:45:32;;;;;;;9.88;1.60;;;;;;;;;;5022973;28;20088;-54
2022/01/27 14:48:03;;;;;;;5.97;1.75;;;;;;;;;;5019395;28;20364;-52
2022/01/27 14:50:30;;;;;;;8.75;2.42;;;;;;;;;;5020092;28;20053;-54
2022/01/27 14:52:58;;;;;;;12.45;1.83;;;;;;;;;;5021417;28;20076;-53
2022/01/27 14:55:25;;;;;;;7.15;1.63;;;;;;;;;;5021772;28;20046;-52
2022/01/27 14:57:52;;;;;;;7.60;1.80;;;;;;;;;;5015336;28;20128;-53
2022/01/27 15:00:19;;;;;;;14.80;2.78;;;;;;;;;;5017033;28;20133;-50
2022/01/27 15:02:46;;;;;;;8.23;1.83;;;;;;;;;;5023726;28;20419;-52
2022/01/27 15:05:12;;;;;;;13.73;4.45;;;;;;;;;;5021582;28;20045;-53
2022/01/27 15:07:39;;;;;;;8.35;2.20;;;;;;;;;;5022070;28;20057;-54
2022/01/27 15:10:06;;;;;;;8.25;1.73;;;;;;;;;;5019985;28;20531;-51
2022/01/27 15:12:32;;;;;;;8.63;1.48;;;;;;;;;;5023080;28;20081;-52
2022/01/27 15:20:30;;;;;;;7.47;1.70;;;;;;;;;;5021698;28;20057;-52
2022/01/27 15:22:57;;;;;;;9.45;1.65;;;;;;;;;;5021502;28;20136;-52
2022/01/27 15:25:24;;;;;;;6.28;1.80;;;;;;;;;;5022426;28;20576;-53
2022/01/27 15:27:51;;;;;;;11.00;1.60;;;;;;;;;;5012606;28;20172;-54
2022/01/27 15:30:18;;;;;;;5.15;1.23;;;;;;;;;;5023693;28;20128;-54
2022/01/27 15:32:48;;;;;;;14.90;1.88;;;;;;;;;;5017740;28;20148;-55
2022/01/27 15:35:16;;;;;;;5.72;1.63;;;;;;;;;;5022629;28;20099;-53
2022/01/27 15:37:43;;;;;;;9.05;1.50;;;;;;;;;;5021126;28;20072;-54
2022/01/27 15:40:13;;;;;;;6.63;1.50;;;;;;;;;;5017224;28;20136;-53
2022/01/27 15:42:53;;;;;;;7.57;1.55;;;;;;;;;;5022562;28;20084;-53
2022/01/27 15:45:26;;;;;;;6.80;1.52;;;;;;;;;;5018204;28;20050;-54
2022/01/27 15:47:53;;;;;;;11.45;1.42;;;;;;;;;;5020235;28;20107;-53